Time;durP1;ratioP1;P1;durP2;ratioP2;P2;SDS_P1;SDS_P2;PMS_P1;PMS_P2;Temp;Humidity;BMP_temperature;BMP_pressure;BME280_temperature;BME280_humidity;BME280_pressure;Samples;Min_cycle;Max_cycle;Signal;HPM_P1;HPM_P2
2023/08/02 00:01:32;;;;;;;4.20;3.70;;;;;;;16.48;77.60;99884.81;5014752;28;20188;-68
2023/08/02 00:03:59;;;;;;;3.30;3.17;;;;;;;16.46;77.73;99901.25;5014345;28;20212;-68
2023/08/02 00:06:36;;;;;;;4.47;3.40;;;;;;;16.41;77.74;99904.56;5014893;28;20246;-68
2023/08/02 00:09:03;;;;;;;6.10;3.80;;;;;;;16.41;77.84;99888.38;5014330;28;20196;-68
2023/08/02 00:11:29;;;;;;;3.97;3.67;;;;;;;16.37;77.80;99889.84;5014496;28;20188;-68
2023/08/02 00:13:56;;;;;;;6.37;3.67;;;;;;;16.35;77.88;99880.28;5014239;28;20220;-68
2023/08/02 00:16:22;;;;;;;4.73;3.80;;;;;;;16.34;78.13;99878.59;5014759;28;20192;-69
2023/08/02 00:18:49;;;;;;;3.50;3.20;;;;;;;16.31;78.17;99876.34;5014151;28;20184;-68
2023/08/02 00:21:15;;;;;;;3.40;3.13;;;;;;;16.25;78.38;99872.59;5014173;28;20258;-68
2023/08/02 00:23:41;;;;;;;3.80;3.40;;;;;;;16.29;78.29;99883.81;5014317;28;20728;-68
2023/08/02 00:26:08;;;;;;;4.17;3.97;;;;;;;16.26;78.30;99876.97;5014511;28;20258;-69
2023/08/02 00:28:34;;;;;;;3.80;3.60;;;;;;;16.26;78.37;99873.44;5012758;28;20201;-69
2023/08/02 00:31:01;;;;;;;3.80;3.13;;;;;;;16.26;78.55;99874.25;5014524;28;20188;-69
2023/08/02 00:33:27;;;;;;;3.90;3.27;;;;;;;16.26;78.42;99878.81;5013858;28;20207;-69
2023/08/02 00:35:54;;;;;;;3.67;3.33;;;;;;;16.25;78.62;99869.09;5014170;28;20181;-68
2023/08/02 00:38:21;;;;;;;3.83;3.53;;;;;;;16.26;78.44;99857.25;5012627;28;20199;-68
2023/08/02 00:40:48;;;;;;;3.50;3.20;;;;;;;16.19;78.79;99857.28;5013850;28;20239;-68
2023/08/02 00:43:15;;;;;;;3.10;2.80;;;;;;;16.22;78.88;99859.53;5012475;28;20760;-68
2023/08/02 00:45:41;;;;;;;3.30;3.13;;;;;;;16.21;78.96;99848.97;5012441;28;20678;-68
2023/08/02 00:48:08;;;;;;;7.90;2.90;;;;;;;16.24;78.83;99859.34;5012475;28;20188;-68
2023/08/02 00:50:35;;;;;;;3.43;3.23;;;;;;;16.22;78.85;99867.63;5013267;28;20202;-68
2023/08/02 00:53:02;;;;;;;3.57;3.40;;;;;;;16.22;78.88;99858.72;5013600;28;20208;-68
2023/08/02 00:55:29;;;;;;;8.40;3.27;;;;;;;16.27;78.71;99861.63;5013910;28;20575;-68
2023/08/02 00:57:56;;;;;;;5.30;3.60;;;;;;;16.22;78.81;99861.41;5013873;28;20181;-68
2023/08/02 01:00:23;;;;;;;4.30;2.93;;;;;;;16.19;78.69;99853.75;5013861;28;20238;-68
2023/08/02 01:02:49;;;;;;;3.97;2.50;;;;;;;16.13;78.96;99852.69;5013452;28;20270;-68
2023/08/02 01:05:17;;;;;;;3.17;3.07;;;;;;;16.10;79.01;99845.03;5013797;28;20242;-68
2023/08/02 01:07:57;;;;;;;3.17;2.87;;;;;;;16.11;78.95;99845.88;5013740;28;20261;-68
2023/08/02 01:10:32;;;;;;;2.50;2.50;;;;;;;16.05;79.03;99842.13;5012303;28;20196;-68
2023/08/02 01:13:01;;;;;;;3.77;2.40;;;;;;;16.04;79.04;99831.56;5013471;28;20211;-68
2023/08/02 01:15:28;;;;;;;3.03;2.20;;;;;;;16.00;79.30;99836.53;5012767;28;20196;-68
2023/08/02 01:17:55;;;;;;;2.87;2.67;;;;;;;15.98;79.28;99836.75;5013967;28;20219;-68
2023/08/02 01:20:21;;;;;;;2.80;2.57;;;;;;;15.98;79.43;99825.13;5013654;28;20192;-68
2023/08/02 01:22:48;;;;;;;2.60;2.30;;;;;;;15.93;79.25;99823.06;5012035;28;20258;-68
2023/08/02 01:25:15;;;;;;;2.17;2.13;;;;;;;15.90;79.48;99825.34;5013631;28;20197;-68
2023/08/02 01:27:46;;;;;;;3.87;2.93;;;;;;;15.98;79.20;99827.84;5012002;28;20215;-68
2023/08/02 01:30:14;;;;;;;2.97;2.90;;;;;;;15.84;79.82;99829.69;5012127;28;20662;-68
2023/08/02 01:32:42;;;;;;;3.53;2.90;;;;;;;15.79;80.10;99824.09;5013217;28;20238;-68
2023/08/02 01:35:09;;;;;;;2.97;2.57;;;;;;;15.78;80.19;99818.94;5012029;28;20270;-68
2023/08/02 01:37:36;;;;;;;5.87;3.40;;;;;;;15.75;80.77;99822.84;5013288;28;20188;-68
2023/08/02 01:40:03;;;;;;;3.00;2.90;;;;;;;15.77;80.25;99830.75;5013272;28;20262;-68
2023/08/02 01:42:30;;;;;;;5.47;3.17;;;;;;;15.73;80.50;99819.56;5013138;28;20194;-67
2023/08/02 01:44:57;;;;;;;6.10;3.13;;;;;;;15.71;80.60;99808.13;5011933;28;20197;-68
2023/08/02 01:47:23;;;;;;;3.00;2.90;;;;;;;15.65;80.78;99808.16;5013357;28;20212;-68
2023/08/02 01:49:50;;;;;;;3.47;3.30;;;;;;;15.66;81.12;99804.41;5013131;28;20207;-68
2023/08/02 01:52:17;;;;;;;3.70;3.40;;;;;;;15.65;80.99;99816.22;5013356;28;20242;-68
2023/08/02 01:54:43;;;;;;;3.53;3.27;;;;;;;15.66;81.11;99812.50;5011744;28;20270;-68
2023/08/02 01:57:09;;;;;;;3.23;2.60;;;;;;;15.62;80.92;99806.69;5013608;28;20606;-68
2023/08/02 01:59:36;;;;;;;2.83;2.83;;;;;;;15.63;81.71;99805.66;5011817;28;20201;-68
2023/08/02 02:02:03;;;;;;;3.50;2.83;;;;;;;15.64;81.40;99793.00;5011775;28;20200;-68
2023/08/02 02:04:29;;;;;;;2.53;2.53;;;;;;;15.64;81.48;99790.31;5011718;28;20216;-68
2023/08/02 02:06:55;;;;;;;3.50;3.40;;;;;;;15.63;82.19;99784.09;5012957;28;20209;-68
2023/08/02 02:09:22;;;;;;;3.37;2.97;;;;;;;15.61;81.51;99777.25;5013266;28;20189;-68
2023/08/02 02:11:49;;;;;;;3.20;3.00;;;;;;;15.61;81.64;99780.78;5011631;28;20204;-68
2023/08/02 02:14:15;;;;;;;2.73;2.73;;;;;;;15.62;81.56;99774.34;5012982;28;20216;-68
2023/08/02 02:16:42;;;;;;;3.37;3.20;;;;;;;15.61;81.72;99780.78;5016989;28;20195;-68
2023/08/02 02:19:09;;;;;;;3.40;3.10;;;;;;;15.62;81.82;99778.91;5015136;28;20663;-68
2023/08/02 02:21:35;;;;;;;3.47;3.27;;;;;;;15.62;81.31;99774.34;5016358;28;20189;-68
2023/08/02 02:24:02;;;;;;;3.00;2.90;;;;;;;15.60;81.74;99768.34;5016358;28;20255;-68
2023/08/02 02:26:29;;;;;;;3.50;3.30;;;;;;;15.63;82.12;99762.53;5016202;28;20204;-68
2023/08/02 02:28:55;;;;;;;5.60;3.00;;;;;;;15.60;82.01;99764.81;5016719;28;20651;-68
2023/08/02 02:31:22;;;;;;;3.97;2.97;;;;;;;15.61;81.95;99753.84;5016479;28;20263;-69
2023/08/02 02:33:49;;;;;;;3.60;2.97;;;;;;;15.61;81.83;99747.63;5014810;28;20339;-68
2023/08/02 02:36:16;;;;;;;3.57;3.07;;;;;;;15.60;82.29;99752.19;5016087;28;20726;-68
2023/08/02 02:38:42;;;;;;;2.87;2.70;;;;;;;15.62;82.41;99750.09;5014780;28;20201;-68
2023/08/02 02:41:09;;;;;;;17.10;3.10;;;;;;;15.61;82.24;99751.16;5016249;28;20188;-68
2023/08/02 02:43:35;;;;;;;5.07;3.33;;;;;;;15.63;82.08;99764.41;5015878;28;20267;-68
2023/08/02 02:46:01;;;;;;;2.90;2.73;;;;;;;15.63;82.42;99751.75;5015939;28;20247;-68
2023/08/02 02:48:28;;;;;;;6.17;3.17;;;;;;;15.62;82.38;99744.69;5015787;28;20214;-68
2023/08/02 02:50:54;;;;;;;2.90;2.70;;;;;;;15.63;82.38;99730.19;5015828;28;20239;-68
2023/08/02 02:53:22;;;;;;;5.57;3.17;;;;;;;15.64;82.32;99714.88;5016224;28;20213;-68
2023/08/02 02:55:51;;;;;;;2.70;2.63;;;;;;;15.62;82.52;99711.53;5014469;28;20270;-68
2023/08/02 02:58:18;;;;;;;3.50;3.20;;;;;;;15.62;82.44;99700.75;5015657;28;20224;-68
2023/08/02 03:00:44;;;;;;;2.30;2.20;;;;;;;15.64;82.43;99694.16;5016121;28;20231;-68
2023/08/02 03:03:11;;;;;;;5.83;3.10;;;;;;;15.63;82.77;99692.47;5015773;28;20760;-68
2023/08/02 03:05:38;;;;;;;3.10;3.00;;;;;;;15.66;82.70;99689.34;5015528;28;20625;-68
2023/08/02 03:08:05;;;;;;;6.53;3.50;;;;;;;15.67;82.71;99685.63;5015417;28;20259;-68
2023/08/02 03:10:31;;;;;;;4.90;4.43;;;;;;;15.68;83.05;99673.00;5015428;28;20185;-68
2023/08/02 03:12:58;;;;;;;5.27;5.17;;;;;;;15.69;83.03;99671.97;5015351;28;20251;-68
2023/08/02 03:15:24;;;;;;;12.33;6.10;;;;;;;15.68;82.81;99679.22;5015808;28;20230;-68
2023/08/02 03:17:50;;;;;;;5.10;4.73;;;;;;;15.67;83.02;99671.31;5015297;28;20624;-68
2023/08/02 03:20:17;;;;;;;5.50;5.33;;;;;;;15.69;82.87;99658.50;5015260;28;20201;-68
2023/08/02 03:22:44;;;;;;;6.20;5.30;;;;;;;15.69;83.05;99669.25;5015340;28;20188;-68
2023/08/02 03:25:10;;;;;;;6.80;6.60;;;;;;;15.72;82.59;99666.13;5015702;28;20188;-68
2023/08/02 03:27:36;;;;;;;11.53;6.37;;;;;;;15.73;82.57;99663.25;5013986;28;20209;-68
2023/08/02 03:30:03;;;;;;;6.67;5.87;;;;;;;15.74;82.68;99661.38;5015066;28;20728;-68
2023/08/02 03:32:30;;;;;;;6.43;6.00;;;;;;;15.75;82.46;99666.53;5015449;28;20185;-68
2023/08/02 03:34:56;;;;;;;7.20;5.73;;;;;;;15.77;82.55;99667.19;5014971;28;20275;-68
2023/08/02 03:37:22;;;;;;;4.93;4.73;;;;;;;15.77;82.69;99653.69;5014935;28;20177;-68
2023/08/02 03:39:49;;;;;;;4.13;3.90;;;;;;;15.79;82.51;99637.31;5014861;28;20188;-68
2023/08/02 03:42:15;;;;;;;3.97;3.63;;;;;;;15.79;83.19;99643.53;5015091;28;20197;-68
2023/08/02 03:44:42;;;;;;;3.43;3.23;;;;;;;15.80;83.01;99645.19;5015013;28;20262;-68
2023/08/02 03:47:08;;;;;;;10.47;3.33;;;;;;;15.78;82.68;99630.28;5015273;28;20675;-68
2023/08/02 03:49:36;;;;;;;3.10;2.90;;;;;;;15.79;82.59;99627.34;5015009;28;20259;-68
2023/08/02 03:52:03;;;;;;;3.23;3.10;;;;;;;15.81;82.25;99624.47;5015202;28;20248;-68
2023/08/02 03:54:29;;;;;;;3.33;3.03;;;;;;;15.82;82.11;99615.34;5014817;28;20220;-68
2023/08/02 03:56:56;;;;;;;3.50;3.30;;;;;;;15.81;82.08;99605.59;5015139;28;20643;-68
2023/08/02 03:59:22;;;;;;;4.83;3.30;;;;;;;15.85;82.27;99604.13;5014805;28;20181;-68
2023/08/02 04:01:49;;;;;;;7.67;3.23;;;;;;;15.88;82.19;99601.00;5014980;28;20701;-68
2023/08/02 04:04:15;;;;;;;6.37;3.27;;;;;;;15.86;82.18;99593.13;5014359;28;20213;-68
2023/08/02 04:06:42;;;;;;;6.83;3.00;;;;;;;15.88;82.00;99603.69;5014834;28;20189;-68
2023/08/02 04:09:09;;;;;;;3.90;3.57;;;;;;;15.89;82.12;99608.03;5014338;28;20188;-68
2023/08/02 04:11:35;;;;;;;4.00;3.70;;;;;;;15.88;81.93;99609.91;5014639;28;20192;-68
2023/08/02 04:14:01;;;;;;;8.20;3.37;;;;;;;15.86;82.15;99617.41;5014508;28;20216;-68
2023/08/02 04:16:28;;;;;;;3.60;2.87;;;;;;;15.89;81.37;99619.66;5014203;28;20197;-68
2023/08/02 04:18:54;;;;;;;3.70;3.33;;;;;;;15.89;81.99;99608.88;5014203;28;20300;-68
2023/08/02 04:21:21;;;;;;;5.13;3.77;;;;;;;15.95;81.66;99610.69;5014097;28;20188;-68
2023/08/02 04:23:50;;;;;;;4.43;4.03;;;;;;;15.94;81.73;99600.16;5014125;28;20304;-68
2023/08/02 04:26:16;;;;;;;4.37;4.00;;;;;;;15.94;81.07;99581.28;5014598;28;20639;-68
2023/08/02 04:28:45;;;;;;;4.60;4.23;;;;;;;15.95;81.36;99578.34;5013902;28;20212;-68
2023/08/02 04:31:13;;;;;;;9.83;3.60;;;;;;;15.99;81.13;99576.09;5014332;28;20582;-68
2023/08/02 04:33:40;;;;;;;7.07;4.53;;;;;;;16.02;81.08;99570.25;5013814;28;20218;-68
2023/08/02 04:36:06;;;;;;;4.10;3.70;;;;;;;16.02;81.24;99569.41;5014356;28;20516;-69
2023/08/02 04:38:33;;;;;;;2.83;2.73;;;;;;;16.00;81.25;99554.28;5014185;28;20184;-69
2023/08/02 04:40:59;;;;;;;3.87;3.07;;;;;;;16.01;81.58;99544.31;5013858;28;20607;-68
2023/08/02 04:43:26;;;;;;;7.27;2.97;;;;;;;15.99;82.02;99536.47;5013752;28;20694;-68
2023/08/02 04:45:52;;;;;;;3.47;3.17;;;;;;;16.03;81.83;99530.66;5013791;28;20241;-68
2023/08/02 04:48:18;;;;;;;3.60;3.40;;;;;;;16.05;81.47;99520.44;5013676;28;20212;-68
2023/08/02 04:50:45;;;;;;;3.20;3.10;;;;;;;16.02;81.80;99513.63;5013890;28;20243;-68
2023/08/02 04:53:11;;;;;;;3.90;2.43;;;;;;;16.03;81.88;99498.28;5014333;28;20208;-68
2023/08/02 04:55:45;;;;;;;3.03;2.90;;;;;;;16.08;81.80;99493.09;5013904;28;20239;-68
2023/08/02 04:58:11;;;;;;;2.47;2.27;;;;;;;16.11;81.38;99496.16;5013888;28;20177;-69
2023/08/02 05:00:38;;;;;;;2.50;2.43;;;;;;;16.12;81.13;99486.22;5013883;28;20196;-68
2023/08/02 05:03:04;;;;;;;2.47;2.47;;;;;;;16.17;80.94;99468.31;5013542;28;20619;-68
2023/08/02 05:05:31;;;;;;;8.10;3.20;;;;;;;16.23;80.60;99472.84;5013817;28;20184;-69
2023/08/02 05:07:59;;;;;;;5.57;2.40;;;;;;;16.21;80.84;99469.53;5013457;28;20695;-69
2023/08/02 05:10:25;;;;;;;2.87;2.53;;;;;;;16.25;80.56;99462.66;5013509;28;20193;-69
2023/08/02 05:12:51;;;;;;;3.40;2.40;;;;;;;16.22;80.61;99457.69;5013441;28;20342;-69
2023/08/02 05:15:18;;;;;;;2.40;2.40;;;;;;;16.24;80.61;99452.94;5013679;28;20246;-69
2023/08/02 05:17:44;;;;;;;4.97;2.63;;;;;;;16.31;80.57;99452.88;5013960;28;20189;-69
2023/08/02 05:20:11;;;;;;;13.40;2.40;;;;;;;16.35;80.51;99443.28;5013406;28;20647;-69
2023/08/02 05:22:38;;;;;;;4.30;2.60;;;;;;;16.36;80.45;99443.06;5013589;28;20191;-69
2023/08/02 05:25:04;;;;;;;2.80;2.60;;;;;;;16.39;80.52;99437.22;5013304;28;20663;-69
2023/08/02 05:27:31;;;;;;;3.50;2.67;;;;;;;16.40;80.31;99440.75;5013490;28;20204;-69
2023/08/02 05:29:57;;;;;;;19.77;3.30;;;;;;;16.42;80.27;99441.38;5013810;28;20192;-70
2023/08/02 05:32:23;;;;;;;9.73;3.80;;;;;;;16.43;79.91;99430.34;5013584;28;20659;-69
2023/08/02 05:34:50;;;;;;;9.07;3.03;;;;;;;16.50;80.14;99418.69;5013193;28;20247;-69
2023/08/02 05:37:17;;;;;;;5.13;3.03;;;;;;;16.53;80.21;99413.66;5013290;28;20189;-69
2023/08/02 05:39:43;;;;;;;12.20;3.90;;;;;;;16.56;80.03;99397.03;5013974;28;20665;-70
2023/08/02 05:42:10;;;;;;;3.80;3.43;;;;;;;16.56;80.24;99393.50;5013212;28;20195;-69
2023/08/02 05:44:38;;;;;;;5.30;3.60;;;;;;;16.66;79.63;99383.06;5013081;28;20209;-69
2023/08/02 05:47:06;;;;;;;4.53;4.20;;;;;;;16.66;79.85;99377.66;5013000;28;20220;-69
2023/08/02 05:49:32;;;;;;;3.60;3.50;;;;;;;16.66;79.67;99374.97;5014053;28;20196;-69
2023/08/02 05:51:58;;;;;;;5.80;3.90;;;;;;;16.64;79.76;99377.88;5016927;28;20617;-69
2023/08/02 05:54:25;;;;;;;4.27;3.97;;;;;;;16.69;79.72;99379.91;5016796;28;20254;-69
2023/08/02 05:56:51;;;;;;;4.60;4.23;;;;;;;16.71;79.85;99373.25;5016781;28;20717;-69
2023/08/02 05:59:18;;;;;;;3.63;3.33;;;;;;;16.72;79.94;99368.69;5017002;28;20586;-69
2023/08/02 06:01:44;;;;;;;3.93;3.73;;;;;;;16.77;80.08;99364.25;5016713;28;20213;-69
2023/08/02 06:04:11;;;;;;;3.80;3.60;;;;;;;16.74;80.00;99367.41;5016635;28;20255;-69
2023/08/02 06:06:38;;;;;;;4.03;3.83;;;;;;;16.73;80.18;99365.75;5016674;28;20273;-69
2023/08/02 06:09:04;;;;;;;4.90;4.60;;;;;;;16.74;79.85;99353.06;5016783;28;20223;-70
2023/08/02 06:11:35;;;;;;;6.13;5.13;;;;;;;16.72;80.20;99339.78;5016720;28;20184;-69
2023/08/02 06:14:01;;;;;;;4.67;4.37;;;;;;;16.74;79.50;99340.41;5016523;28;20212;-69
2023/08/02 06:16:27;;;;;;;5.17;4.00;;;;;;;16.78;80.35;99346.19;5016487;28;20192;-70
2023/08/02 06:18:54;;;;;;;12.73;4.43;;;;;;;16.79;80.78;99334.34;5016904;28;20640;-69
2023/08/02 06:21:20;;;;;;;4.57;4.27;;;;;;;16.80;80.74;99338.69;5016365;28;20189;-69
2023/08/02 06:23:47;;;;;;;5.77;4.30;;;;;;;16.78;80.52;99330.81;5016239;28;20625;-69
2023/08/02 06:26:13;;;;;;;4.93;4.60;;;;;;;16.79;81.06;99339.75;5016261;28;20189;-69
2023/08/02 06:28:39;;;;;;;3.87;3.77;;;;;;;16.82;80.79;99333.88;5016403;28;20221;-69
2023/08/02 06:31:06;;;;;;;4.33;4.07;;;;;;;16.78;81.70;99324.59;5016209;28;20254;-69
2023/08/02 06:33:32;;;;;;;3.77;3.73;;;;;;;16.80;81.87;99317.09;5016155;28;20579;-70
2023/08/02 06:35:59;;;;;;;4.67;4.37;;;;;;;16.78;81.82;99320.00;5016341;28;20262;-69
2023/08/02 06:38:25;;;;;;;5.33;4.07;;;;;;;16.75;82.09;99311.56;5016053;28;20536;-69
2023/08/02 06:40:51;;;;;;;4.83;4.60;;;;;;;16.78;82.01;99321.88;5016034;28;20201;-69
2023/08/02 06:43:18;;;;;;;4.40;4.20;;;;;;;16.71;82.28;99300.38;5016168;28;20620;-69
2023/08/02 06:45:46;;;;;;;4.27;3.97;;;;;;;16.65;82.84;99298.56;5015982;28;20189;-69
2023/08/02 06:48:13;;;;;;;4.27;4.13;;;;;;;16.58;83.56;99297.00;5016297;28;20262;-69
2023/08/02 06:50:40;;;;;;;5.23;5.13;;;;;;;16.57;83.73;99288.09;5015808;28;20193;-68
2023/08/02 06:53:06;;;;;;;4.80;4.70;;;;;;;16.55;84.14;99275.84;5015918;28;20549;-69
2023/08/02 06:55:32;;;;;;;4.83;4.57;;;;;;;16.53;85.12;99262.59;5015717;28;20189;-69
2023/08/02 06:57:59;;;;;;;5.77;5.40;;;;;;;16.52;84.89;99263.63;5016247;28;20590;-70
2023/08/02 07:00:25;;;;;;;4.70;4.70;;;;;;;16.56;84.73;99256.72;5016016;28;20236;-70
2023/08/02 07:02:52;;;;;;;5.90;5.43;;;;;;;16.55;85.48;99262.38;5015795;28;20204;-69
2023/08/02 07:05:18;;;;;;;5.27;4.87;;;;;;;16.53;85.44;99251.78;5015564;28;20193;-69
2023/08/02 07:07:45;;;;;;;8.33;4.67;;;;;;;16.50;85.20;99236.06;5015495;28;20204;-70
2023/08/02 07:10:11;;;;;;;4.40;3.97;;;;;;;16.50;85.78;99230.66;5015792;28;20243;-70
2023/08/02 07:12:38;;;;;;;4.50;4.17;;;;;;;16.46;85.75;99221.38;5015221;28;20255;-69
2023/08/02 07:15:04;;;;;;;8.70;4.43;;;;;;;16.41;85.85;99211.25;5015601;28;20596;-70
2023/08/02 07:17:31;;;;;;;5.20;4.60;;;;;;;16.36;86.13;99204.88;5015617;28;20609;-70
2023/08/02 07:19:57;;;;;;;8.10;4.70;;;;;;;16.35;86.56;99200.53;5015288;28;20685;-70
2023/08/02 07:22:24;;;;;;;4.77;4.53;;;;;;;16.37;86.66;99206.53;5015240;28;20232;-71
2023/08/02 07:24:50;;;;;;;6.87;4.83;;;;;;;16.32;87.32;99193.72;5015142;28;20209;-70
2023/08/02 07:27:17;;;;;;;3.83;3.43;;;;;;;16.33;87.45;99192.69;5015128;28;20192;-70
2023/08/02 07:29:43;;;;;;;4.90;4.53;;;;;;;16.29;87.44;99196.88;5014999;28;20266;-70
2023/08/02 07:32:10;;;;;;;4.93;4.83;;;;;;;16.31;87.43;99181.28;5015309;28;20262;-70
2023/08/02 07:34:36;;;;;;;12.53;5.00;;;;;;;16.37;87.22;99182.28;5014926;28;20624;-70
2023/08/02 07:37:03;;;;;;;4.83;4.50;;;;;;;16.36;87.55;99178.75;5014994;28;20189;-70
2023/08/02 07:39:29;;;;;;;7.43;5.53;;;;;;;16.38;88.21;99170.41;5014937;28;20185;-70
2023/08/02 07:41:56;;;;;;;10.80;5.07;;;;;;;16.43;88.01;99167.84;5014846;28;20600;-70
2023/08/02 07:44:22;;;;;;;4.67;4.43;;;;;;;16.44;88.33;99159.56;5015290;28;20212;-70
2023/08/02 07:46:50;;;;;;;4.23;3.97;;;;;;;16.40;88.65;99152.97;5015330;28;20181;-70
2023/08/02 07:49:17;;;;;;;3.37;3.17;;;;;;;16.39;88.79;99137.81;5015222;28;20208;-70
2023/08/02 07:51:43;;;;;;;4.83;3.57;;;;;;;16.41;88.86;99132.22;5014686;28;20192;-70
2023/08/02 07:54:10;;;;;;;5.90;4.10;;;;;;;16.43;88.71;99113.91;5015119;28;20217;-71
2023/08/02 07:56:36;;;;;;;4.50;4.20;;;;;;;16.39;89.22;99108.16;5014610;28;20250;-70
2023/08/02 07:59:03;;;;;;;3.73;3.63;;;;;;;16.33;89.69;99092.91;5014782;28;20227;-70
2023/08/02 08:01:30;;;;;;;6.57;3.53;;;;;;;16.31;90.41;99088.78;5014499;28;20283;-71
2023/08/02 08:03:56;;;;;;;2.93;2.80;;;;;;;16.31;90.62;99078.81;5014386;28;20213;-70
2023/08/02 08:06:23;;;;;;;4.93;2.27;;;;;;;16.34;90.20;99067.56;5015225;28;20181;-69
2023/08/02 08:08:50;;;;;;;2.50;2.50;;;;;;;16.34;90.69;99066.72;5014582;28;20208;-71
2023/08/02 08:11:17;;;;;;;2.23;2.23;;;;;;;16.38;91.14;99049.84;5014315;28;20601;-71
2023/08/02 08:13:44;;;;;;;2.10;2.10;;;;;;;16.38;91.16;99044.47;5013929;28;20629;-71
2023/08/02 08:16:10;;;;;;;1.63;1.63;;;;;;;16.40;91.00;99050.47;5014513;28;20192;-71
2023/08/02 08:18:37;;;;;;;2.37;2.13;;;;;;;16.44;91.13;99043.56;5014471;28;20192;-71
2023/08/02 08:21:04;;;;;;;2.10;1.90;;;;;;;16.53;90.96;99045.91;5014190;28;20200;-71
2023/08/02 08:23:30;;;;;;;2.23;2.13;;;;;;;16.57;91.40;99036.31;5014097;28;20212;-71
2023/08/02 08:25:57;;;;;;;2.10;2.10;;;;;;;16.58;91.01;99019.09;5014124;28;20193;-69
2023/08/02 08:28:23;;;;;;;1.60;1.60;;;;;;;16.60;90.30;99025.91;5013988;28;20200;-71
2023/08/02 08:31:01;;;;;;;2.97;1.57;;;;;;;16.59;90.56;99018.06;5014008;28;20682;-70
2023/08/02 08:33:29;;;;;;;2.20;2.10;;;;;;;16.59;90.89;99010.75;5014342;28;20335;-69
2023/08/02 08:35:55;;;;;;;1.60;1.60;;;;;;;16.63;90.77;99013.84;5013978;28;20188;-70
2023/08/02 08:38:22;;;;;;;2.60;2.60;;;;;;;16.67;90.75;99013.16;5013914;28;20193;-70
2023/08/02 08:40:53;;;;;;;2.40;2.30;;;;;;;16.76;90.57;99002.84;5014468;28;20200;-69
2023/08/02 08:43:20;;;;;;;3.33;2.00;;;;;;;16.80;90.36;98991.31;5013770;28;20725;-70
2023/08/02 08:45:47;;;;;;;2.23;2.23;;;;;;;16.79;89.39;98991.56;5014414;28;20612;-69
2023/08/02 08:48:13;;;;;;;2.63;2.60;;;;;;;16.78;89.13;98996.13;5014295;28;20200;-70
2023/08/02 08:50:43;;;;;;;2.80;2.80;;;;;;;16.84;87.88;98997.09;5014358;28;20185;-69
2023/08/02 08:53:22;;;;;;;2.30;2.30;;;;;;;16.84;87.95;98991.69;5013718;28;20208;-69
2023/08/02 08:55:50;;;;;;;2.83;2.70;;;;;;;16.88;88.10;98985.59;5013731;28;20177;-69
2023/08/02 08:58:16;;;;;;;2.47;2.47;;;;;;;16.91;88.01;98981.59;5013644;28;20185;-70
2023/08/02 09:00:44;;;;;;;3.73;3.53;;;;;;;17.00;87.82;98980.19;5013905;28;20188;-70
2023/08/02 09:03:12;;;;;;;3.00;2.90;;;;;;;17.02;87.75;98963.72;5013856;28;20238;-69
2023/08/02 09:05:40;;;;;;;2.70;2.70;;;;;;;17.04;87.24;98967.84;5014214;28;20173;-69
2023/08/02 09:08:08;;;;;;;2.80;2.80;;;;;;;17.10;87.59;98975.00;5013471;28;20199;-69
2023/08/02 09:10:34;;;;;;;2.47;2.47;;;;;;;17.23;87.14;98955.00;5013468;28;20192;-69
2023/08/02 09:13:01;;;;;;;2.20;1.80;;;;;;;17.33;86.19;98953.38;5013544;28;20216;-70
2023/08/02 09:15:27;;;;;;;2.67;2.67;;;;;;;17.39;86.44;98950.78;5013467;28;20686;-69
2023/08/02 09:17:55;;;;;;;2.50;2.50;;;;;;;17.42;86.74;98956.50;5013958;28;20184;-69
2023/08/02 09:20:26;;;;;;;2.50;2.50;;;;;;;17.46;87.08;98956.84;5013388;28;20188;-69
2023/08/02 09:22:53;;;;;;;2.00;2.00;;;;;;;17.56;85.92;98930.88;5013619;28;20216;-69
2023/08/02 09:25:25;;;;;;;1.70;1.60;;;;;;;17.62;86.28;98931.81;5015891;28;20562;-69
2023/08/02 09:27:54;;;;;;;1.77;1.73;;;;;;;17.68;85.94;98922.75;5017712;28;20177;-69
2023/08/02 09:30:34;;;;;;;2.23;2.20;;;;;;;17.73;85.39;98920.97;5017322;28;20188;-69
2023/08/02 09:33:04;;;;;;;2.00;2.00;;;;;;;17.85;85.66;98922.78;5017718;28;20200;-69
2023/08/02 09:35:47;;;;;;;2.13;2.13;;;;;;;17.98;85.13;98919.78;5017218;28;20192;-69
2023/08/02 09:38:16;;;;;;;2.40;1.97;;;;;;;18.05;85.20;98915.84;5017792;28;20264;-69
2023/08/02 09:40:47;;;;;;;2.10;2.10;;;;;;;18.12;85.12;98905.69;5017168;28;20243;-69
2023/08/02 09:43:33;;;;;;;2.00;2.00;;;;;;;18.18;85.70;98904.72;5017099;28;20208;-69
2023/08/02 09:46:00;;;;;;;1.87;1.87;;;;;;;18.27;83.67;98886.19;5017398;28;20180;-69
2023/08/02 09:48:36;;;;;;;2.10;2.00;;;;;;;18.28;83.77;98890.56;5017221;28;20201;-69
2023/08/02 09:51:03;;;;;;;2.23;2.13;;;;;;;18.42;83.31;98904.53;5017493;28;20172;-69
2023/08/02 09:53:31;;;;;;;3.67;1.80;;;;;;;18.48;83.07;98893.56;5017087;28;20216;-69
2023/08/02 09:55:58;;;;;;;1.90;1.80;;;;;;;18.46;82.95;98873.25;5017357;28;20648;-69
2023/08/02 09:58:26;;;;;;;1.90;1.80;;;;;;;18.49;83.15;98875.44;5017070;28;20536;-70
2023/08/02 10:00:54;;;;;;;1.50;1.50;;;;;;;18.46;82.82;98884.06;5017102;28;20543;-69
2023/08/02 10:03:23;;;;;;;1.33;1.33;;;;;;;18.53;82.59;98879.34;5016675;28;20208;-69
2023/08/02 10:05:55;;;;;;;1.60;1.57;;;;;;;18.63;81.99;98884.88;5016967;28;20624;-69
2023/08/02 10:08:23;;;;;;;1.20;1.20;;;;;;;18.56;82.77;98884.25;5017135;28;20172;-69
2023/08/02 10:10:50;;;;;;;1.10;1.10;;;;;;;18.58;82.69;98869.41;5017126;28;20188;-69
2023/08/02 10:13:25;;;;;;;1.10;1.10;;;;;;;18.59;83.66;98875.63;5016340;28;20228;-69
2023/08/02 10:15:53;;;;;;;2.00;1.10;;;;;;;18.73;82.83;98871.50;5017047;28;20230;-70
2023/08/02 10:18:21;;;;;;;1.40;1.30;;;;;;;18.66;83.55;98887.09;5016451;28;20536;-69
2023/08/02 10:20:48;;;;;;;1.20;1.20;;;;;;;18.62;84.10;98878.66;5017013;28;20263;-70
2023/08/02 10:23:14;;;;;;;5.60;1.33;;;;;;;18.58;85.37;98882.13;5016748;28;20227;-70
2023/08/02 10:25:42;;;;;;;1.33;1.33;;;;;;;18.53;84.90;98874.75;5016290;28;20208;-69
2023/08/02 10:28:10;;;;;;;2.50;1.57;;;;;;;18.49;85.35;98880.88;5016616;28;20168;-69
2023/08/02 10:30:38;;;;;;;11.60;10.67;;;;;;;18.49;86.11;98880.88;5016565;28;20187;-69
2023/08/02 10:33:18;;;;;;;1.50;1.50;;;;;;;18.50;86.53;98866.28;5016431;28;20215;-69
2023/08/02 10:35:55;;;;;;;1.37;1.30;;;;;;;18.40;87.24;98871.53;5015915;28;20184;-69
2023/08/02 10:38:26;;;;;;;1.30;1.30;;;;;;;18.40;86.97;98858.00;5016666;28;20195;-70
2023/08/02 10:41:13;;;;;;;1.90;1.80;;;;;;;18.50;87.78;98848.13;5016616;28;20192;-69
2023/08/02 10:43:54;;;;;;;1.30;1.30;;;;;;;18.63;87.03;98841.56;5015911;28;20719;-69
2023/08/02 10:46:24;;;;;;;1.70;1.70;;;;;;;18.71;87.58;98839.25;5016547;28;20176;-69
2023/08/02 10:48:52;;;;;;;3.17;1.50;;;;;;;18.91;87.86;98818.94;5014630;28;20212;-69
2023/08/02 10:51:32;;;;;;;2.40;2.40;;;;;;;19.06;88.06;98829.94;5015884;28;20659;-69
2023/08/02 10:54:21;;;;;;;2.13;2.03;;;;;;;19.13;87.38;98822.47;5016008;28;20250;-70
2023/08/02 10:56:51;;;;;;;1.50;1.50;;;;;;;19.34;86.75;98823.50;5016070;28;20264;-69
2023/08/02 10:59:38;;;;;;;1.20;1.20;;;;;;;19.46;83.28;98827.75;5015924;28;20671;-69
2023/08/02 11:02:07;;;;;;;1.33;1.33;;;;;;;19.50;83.37;98831.56;5015707;28;20181;-69
2023/08/02 11:04:37;;;;;;;0.97;0.97;;;;;;;19.66;83.47;98821.69;5016102;28;20224;-69
2023/08/02 11:07:14;;;;;;;3.30;1.10;;;;;;;19.68;82.07;98811.44;5015532;28;20188;-69
2023/08/02 11:09:41;;;;;;;1.33;1.33;;;;;;;19.68;83.14;98814.13;5015468;28;20666;-69
2023/08/02 11:12:10;;;;;;;2.20;1.30;;;;;;;19.65;82.19;98816.53;5015478;28;20192;-69
2023/08/02 11:14:42;;;;;;;0.93;0.93;;;;;;;19.65;82.29;98820.06;5015414;28;20231;-69
2023/08/02 11:17:08;;;;;;;1.30;1.20;;;;;;;19.71;81.26;98821.75;5015709;28;20181;-69
2023/08/02 11:19:38;;;;;;;2.23;0.90;;;;;;;19.70;81.63;98816.56;5015676;28;20168;-69
2023/08/02 11:22:06;;;;;;;0.87;0.87;;;;;;;19.71;82.09;98813.63;5015275;28;20192;-69
2023/08/02 11:24:52;;;;;;;1.10;1.10;;;;;;;19.78;82.31;98810.69;5015369;28;20211;-70
2023/08/02 11:27:22;;;;;;;2.17;1.03;;;;;;;19.75;80.87;98812.03;5015464;28;20177;-69
2023/08/02 11:30:07;;;;;;;1.30;1.30;;;;;;;19.83;81.01;98808.00;5015064;28;20220;-69
2023/08/02 11:32:42;;;;;;;1.23;1.23;;;;;;;19.86;80.93;98802.88;5014985;28;20181;-69
2023/08/02 11:35:08;;;;;;;1.13;1.13;;;;;;;19.95;79.94;98785.06;5015344;28;20173;-69
2023/08/02 11:37:38;;;;;;;1.07;1.07;;;;;;;20.04;80.30;98761.81;5015177;28;20194;-70